createdAt,value
2023-04-10T00:00:28.847Z,52.41
2023-04-10T00:15:18.745Z,54.13
2023-04-10T00:30:08.012Z,56.41
2023-04-10T00:44:58.465Z,56.79
2023-04-10T00:59:48.590Z,56.52
2023-04-10T01:15:06.735Z,56.88
2023-04-10T01:30:17.633Z,57.32
2023-04-10T01:45:14.713Z,57.26
2023-04-10T02:29:52.539Z,56.64
2023-04-10T02:44:42.310Z,57.24
2023-04-10T03:14:25.253Z,57.41
2023-04-10T03:29:15.759Z,57.78
2023-04-10T03:44:06.050Z,57.94
2023-04-10T03:58:57.926Z,58.41
2023-04-10T04:13:48.223Z,60.03
2023-04-10T04:28:38.540Z,60.15
2023-04-10T04:43:29.011Z,57.94
2023-04-10T04:58:20.365Z,57.79
2023-04-10T05:13:10.633Z,57.09
2023-04-10T05:28:01.903Z,55.67
2023-04-10T05:42:52.791Z,54.98
2023-04-10T05:57:43.071Z,54.77
2023-04-10T06:12:34.772Z,53.82
2023-04-10T06:27:26.098Z,52.65
2023-04-10T06:42:17.608Z,51.92
2023-04-10T06:57:09.781Z,51.13
2023-04-10T07:12:00.644Z,50.10
2023-04-10T07:26:52.340Z,48.38
2023-04-10T07:41:44.911Z,46.61
2023-04-10T07:56:38.219Z,45.31
2023-04-10T08:11:32.000Z,43.94
2023-04-10T08:26:23.900Z,42.51
2023-04-10T08:41:16.228Z,40.98
2023-04-10T08:56:10.088Z,39.17
2023-04-10T09:25:54.258Z,36.74
2023-04-10T09:40:47.839Z,35.64
2023-04-10T09:55:40.125Z,35.37
2023-04-10T10:25:24.727Z,33.70
2023-04-10T10:40:24.984Z,33.39
2023-04-10T11:10:58.545Z,31.95
2023-04-10T11:25:57.106Z,31.01
2023-04-10T11:41:04.180Z,31.06
2023-04-10T11:56:01.485Z,30.04
2023-04-10T12:10:53.530Z,30.37
2023-04-10T12:25:45.351Z,30.63
2023-04-10T12:40:37.413Z,30.96
2023-04-10T12:55:30.410Z,31.12
2023-04-10T13:10:22.367Z,30.32
2023-04-10T13:40:07.254Z,29.54
2023-04-10T14:09:52.989Z,28.41
2023-04-10T14:24:45.411Z,28.79
2023-04-10T16:08:47.487Z,36.55
2023-04-10T16:23:39.177Z,37.39
2023-04-10T16:38:31.213Z,38.31
2023-04-10T16:53:21.483Z,39.43
2023-04-10T17:08:12.641Z,40.25
2023-04-10T17:23:03.199Z,40.26
2023-04-10T17:37:54.566Z,40.91
2023-04-10T17:52:45.889Z,42.10
2023-04-10T18:07:37.994Z,43.31
2023-04-10T18:22:33.904Z,43.49
2023-04-10T18:37:25.530Z,44.66
2023-04-10T19:07:23.462Z,44.70
2023-04-10T19:22:16.689Z,45.81
2023-04-10T19:37:07.422Z,46.45
2023-04-10T19:51:59.147Z,47.82
2023-04-10T20:06:50.500Z,48.54
2023-04-10T20:21:40.971Z,49.42
2023-04-10T20:36:32.237Z,48.83
2023-04-10T20:51:23.036Z,50.88
2023-04-10T21:06:13.410Z,50.84
2023-04-10T21:21:04.975Z,49.68
2023-04-10T21:35:56.060Z,50.29
2023-04-10T21:50:46.943Z,50.32
2023-04-10T22:05:38.271Z,49.58
2023-04-10T22:20:29.166Z,48.98
2023-04-10T22:35:20.881Z,49.37
2023-04-10T22:50:12.595Z,50.59
2023-04-10T23:19:54.633Z,57.33
2023-04-10T23:34:45.487Z,57.89
